sensor_id;sensor_type;location;lat;lon;timestamp;P1;P2;P0
51258;PMS7003;37327;54.254;18.504;2023-03-01T00:02:31;2;0;0
51258;PMS7003;37327;54.254;18.504;2023-03-01T00:05:48;1;1;0
51258;PMS7003;37327;54.254;18.504;2023-03-01T00:09:05;0;0;0
51258;PMS7003;37327;54.254;18.504;2023-03-01T00:12:22;1;1;0
51258;PMS7003;37327;54.254;18.504;2023-03-01T00:15:40;0;0;0
51258;PMS7003;37327;54.254;18.504;2023-03-01T00:18:58;1;0;0
51258;PMS7003;37327;54.254;18.504;2023-03-01T00:22:15;0;0;0
51258;PMS7003;37327;54.254;18.504;2023-03-01T00:25:32;2;0;0
51258;PMS7003;37327;54.254;18.504;2023-03-01T00:28:49;0;0;0
51258;PMS7003;37327;54.254;18.504;2023-03-01T00:32:07;1;1;1
51258;PMS7003;37327;54.254;18.504;2023-03-01T00:35:25;1;0;0
51258;PMS7003;37327;54.254;18.504;2023-03-01T00:38:43;0;0;0
51258;PMS7003;37327;54.254;18.504;2023-03-01T00:42:02;1;1;1
51258;PMS7003;37327;54.254;18.504;2023-03-01T00:45:21;2;1;0
51258;PMS7003;37327;54.254;18.504;2023-03-01T00:48:38;3;0;0
51258;PMS7003;37327;54.254;18.504;2023-03-01T00:51:56;2;1;1
51258;PMS7003;37327;54.254;18.504;2023-03-01T00:55:13;0;0;0
51258;PMS7003;37327;54.254;18.504;2023-03-01T00:58:30;0;0;0
51258;PMS7003;37327;54.254;18.504;2023-03-01T01:01:48;0;0;0
51258;PMS7003;37327;54.254;18.504;2023-03-01T01:05:06;0;0;0
51258;PMS7003;37327;54.254;18.504;2023-03-01T01:08:24;1;0;0
51258;PMS7003;37327;54.254;18.504;2023-03-01T01:11:41;2;0;0
51258;PMS7003;37327;54.254;18.504;2023-03-01T01:14:59;1;0;0
51258;PMS7003;37327;54.254;18.504;2023-03-01T01:18:16;1;0;0
51258;PMS7003;37327;54.254;18.504;2023-03-01T01:21:34;0;0;0
51258;PMS7003;37327;54.254;18.504;2023-03-01T01:24:52;1;1;0
51258;PMS7003;37327;54.254;18.504;2023-03-01T01:28:09;1;0;0
51258;PMS7003;37327;54.254;18.504;2023-03-01T01:31:27;1;0;0
51258;PMS7003;37327;54.254;18.504;2023-03-01T01:34:46;1;0;0
51258;PMS7003;37327;54.254;18.504;2023-03-01T01:38:03;0;0;0
51258;PMS7003;37327;54.254;18.504;2023-03-01T01:41:20;1;1;1
51258;PMS7003;37327;54.254;18.504;2023-03-01T01:44:39;0;0;0
51258;PMS7003;37327;54.254;18.504;2023-03-01T01:48:06;3;0;0
51258;PMS7003;37327;54.254;18.504;2023-03-01T01:51:23;2;1;1
51258;PMS7003;37327;54.254;18.504;2023-03-01T01:54:46;1;1;0
51258;PMS7003;37327;54.254;18.504;2023-03-01T01:58:09;3;1;0
51258;PMS7003;37327;54.254;18.504;2023-03-01T02:01:31;4;1;1
51258;PMS7003;37327;54.254;18.504;2023-03-01T02:04:48;2;2;1
51258;PMS7003;37327;54.254;18.504;2023-03-01T02:08:14;2;1;1
51258;PMS7003;37327;54.254;18.504;2023-03-01T02:11:33;3;1;0
51258;PMS7003;37327;54.254;18.504;2023-03-01T02:14:53;5;2;2
51258;PMS7003;37327;54.254;18.504;2023-03-01T02:18:12;1;1;0
51258;PMS7003;37327;54.254;18.504;2023-03-01T02:21:37;1;1;1
51258;PMS7003;37327;54.254;18.504;2023-03-01T02:25:07;2;2;0
51258;PMS7003;37327;54.254;18.504;2023-03-01T02:28:35;2;2;0
51258;PMS7003;37327;54.254;18.504;2023-03-01T02:31:55;1;1;1
51258;PMS7003;37327;54.254;18.504;2023-03-01T02:35:14;2;1;1
51258;PMS7003;37327;54.254;18.504;2023-03-01T02:38:34;1;1;1
51258;PMS7003;37327;54.254;18.504;2023-03-01T02:41:52;3;2;2
51258;PMS7003;37327;54.254;18.504;2023-03-01T02:45:11;1;1;1
51258;PMS7003;37327;54.254;18.504;2023-03-01T02:48:38;3;2;1
51258;PMS7003;37327;54.254;18.504;2023-03-01T02:55:26;2;2;2
51258;PMS7003;37327;54.254;18.504;2023-03-01T02:58:44;5;3;3
51258;PMS7003;37327;54.254;18.504;2023-03-01T03:02:08;3;3;2
51258;PMS7003;37327;54.254;18.504;2023-03-01T03:05:38;2;2;1
51258;PMS7003;37327;54.254;18.504;2023-03-01T03:08:55;3;1;1
51258;PMS7003;37327;54.254;18.504;2023-03-01T03:12:13;1;1;1
51258;PMS7003;37327;54.254;18.504;2023-03-01T03:15:30;3;2;1
51258;PMS7003;37327;54.254;18.504;2023-03-01T03:18:52;4;4;3
51258;PMS7003;37327;54.254;18.504;2023-03-01T03:22:09;2;2;2
51258;PMS7003;37327;54.254;18.504;2023-03-01T03:25:26;3;2;2
51258;PMS7003;37327;54.254;18.504;2023-03-01T03:28:45;6;6;4
51258;PMS7003;37327;54.254;18.504;2023-03-01T03:32:03;7;3;3
51258;PMS7003;37327;54.254;18.504;2023-03-01T03:38:46;0;0;0
51258;PMS7003;37327;54.254;18.504;2023-03-01T03:42:05;4;4;3
51258;PMS7003;37327;54.254;18.504;2023-03-01T03:45:22;5;3;2
51258;PMS7003;37327;54.254;18.504;2023-03-01T03:48:43;12;3;2
51258;PMS7003;37327;54.254;18.504;2023-03-01T03:52:01;7;5;4
51258;PMS7003;37327;54.254;18.504;2023-03-01T03:55:19;4;3;3
51258;PMS7003;37327;54.254;18.504;2023-03-01T03:58:36;3;3;2
51258;PMS7003;37327;54.254;18.504;2023-03-01T04:01:53;5;3;2
51258;PMS7003;37327;54.254;18.504;2023-03-01T04:05:11;5;3;2
51258;PMS7003;37327;54.254;18.504;2023-03-01T04:08:33;5;4;4
51258;PMS7003;37327;54.254;18.504;2023-03-01T04:11:51;4;3;3
51258;PMS7003;37327;54.254;18.504;2023-03-01T04:15:09;5;3;3
51258;PMS7003;37327;54.254;18.504;2023-03-01T04:18:29;4;4;3
51258;PMS7003;37327;54.254;18.504;2023-03-01T04:21:47;5;3;2
51258;PMS7003;37327;54.254;18.504;2023-03-01T04:25:05;6;3;2
51258;PMS7003;37327;54.254;18.504;2023-03-01T04:28:26;7;4;4
51258;PMS7003;37327;54.254;18.504;2023-03-01T04:31:52;7;4;2
51258;PMS7003;37327;54.254;18.504;2023-03-01T04:35:09;5;3;2
51258;PMS7003;37327;54.254;18.504;2023-03-01T04:38:26;5;5;3
51258;PMS7003;37327;54.254;18.504;2023-03-01T04:41:43;7;5;4
51258;PMS7003;37327;54.254;18.504;2023-03-01T04:45:01;9;4;3
51258;PMS7003;37327;54.254;18.504;2023-03-01T04:48:19;6;4;3
51258;PMS7003;37327;54.254;18.504;2023-03-01T04:51:36;7;6;4
51258;PMS7003;37327;54.254;18.504;2023-03-01T04:54:54;6;5;4
51258;PMS7003;37327;54.254;18.504;2023-03-01T04:58:11;5;5;3
51258;PMS7003;37327;54.254;18.504;2023-03-01T05:01:28;9;5;5
51258;PMS7003;37327;54.254;18.504;2023-03-01T05:04:45;5;4;4
51258;PMS7003;37327;54.254;18.504;2023-03-01T05:08:03;4;4;3
51258;PMS7003;37327;54.254;18.504;2023-03-01T05:11:24;7;5;4
51258;PMS7003;37327;54.254;18.504;2023-03-01T05:14:44;10;4;3
51258;PMS7003;37327;54.254;18.504;2023-03-01T05:18:01;6;6;4
51258;PMS7003;37327;54.254;18.504;2023-03-01T05:21:19;5;4;3
51258;PMS7003;37327;54.254;18.504;2023-03-01T05:24:37;3;3;2
51258;PMS7003;37327;54.254;18.504;2023-03-01T05:27:54;4;4;2
51258;PMS7003;37327;54.254;18.504;2023-03-01T05:31:12;5;4;3
51258;PMS7003;37327;54.254;18.504;2023-03-01T05:34:33;3;3;3
51258;PMS7003;37327;54.254;18.504;2023-03-01T05:37:52;5;3;3
51258;PMS7003;37327;54.254;18.504;2023-03-01T05:41:13;5;5;4
51258;PMS7003;37327;54.254;18.504;2023-03-01T05:44:33;4;4;3
51258;PMS7003;37327;54.254;18.504;2023-03-01T05:47:50;3;3;2
51258;PMS7003;37327;54.254;18.504;2023-03-01T05:51:08;5;3;3
51258;PMS7003;37327;54.254;18.504;2023-03-01T05:54:26;6;4;3
51258;PMS7003;37327;54.254;18.504;2023-03-01T05:57:43;4;4;3
51258;PMS7003;37327;54.254;18.504;2023-03-01T06:01:01;2;2;2
51258;PMS7003;37327;54.254;18.504;2023-03-01T06:04:18;4;4;3
51258;PMS7003;37327;54.254;18.504;2023-03-01T06:07:35;5;5;5
51258;PMS7003;37327;54.254;18.504;2023-03-01T06:10:53;6;4;4
51258;PMS7003;37327;54.254;18.504;2023-03-01T06:14:10;5;4;3
51258;PMS7003;37327;54.254;18.504;2023-03-01T06:17:31;3;3;3
51258;PMS7003;37327;54.254;18.504;2023-03-01T06:20:54;7;3;2
51258;PMS7003;37327;54.254;18.504;2023-03-01T06:24:12;5;4;3
51258;PMS7003;37327;54.254;18.504;2023-03-01T06:27:29;7;5;3
51258;PMS7003;37327;54.254;18.504;2023-03-01T06:30:46;7;5;4
51258;PMS7003;37327;54.254;18.504;2023-03-01T06:34:03;5;4;2
51258;PMS7003;37327;54.254;18.504;2023-03-01T06:37:21;8;6;5
51258;PMS7003;37327;54.254;18.504;2023-03-01T06:40:38;10;5;4
51258;PMS7003;37327;54.254;18.504;2023-03-01T06:43:55;4;4;4
51258;PMS7003;37327;54.254;18.504;2023-03-01T06:47:13;4;4;4
51258;PMS7003;37327;54.254;18.504;2023-03-01T06:50:30;7;6;5
51258;PMS7003;37327;54.254;18.504;2023-03-01T06:53:48;4;2;2
51258;PMS7003;37327;54.254;18.504;2023-03-01T06:57:05;5;4;4
51258;PMS7003;37327;54.254;18.504;2023-03-01T07:00:22;6;5;4
51258;PMS7003;37327;54.254;18.504;2023-03-01T07:03:40;7;6;5
51258;PMS7003;37327;54.254;18.504;2023-03-01T07:07:00;8;7;5
51258;PMS7003;37327;54.254;18.504;2023-03-01T07:10:19;5;5;4
51258;PMS7003;37327;54.254;18.504;2023-03-01T07:13:36;8;6;4
51258;PMS7003;37327;54.254;18.504;2023-03-01T07:16:54;7;5;4
51258;PMS7003;37327;54.254;18.504;2023-03-01T07:20:12;9;7;6
51258;PMS7003;37327;54.254;18.504;2023-03-01T07:23:31;6;6;5
51258;PMS7003;37327;54.254;18.504;2023-03-01T07:26:49;9;6;5
51258;PMS7003;37327;54.254;18.504;2023-03-01T07:30:07;7;5;4
51258;PMS7003;37327;54.254;18.504;2023-03-01T07:33:26;9;7;5
51258;PMS7003;37327;54.254;18.504;2023-03-01T07:36:43;7;6;6
51258;PMS7003;37327;54.254;18.504;2023-03-01T07:40:01;8;5;4
51258;PMS7003;37327;54.254;18.504;2023-03-01T07:43:18;6;5;4
51258;PMS7003;37327;54.254;18.504;2023-03-01T07:46:37;7;7;5
51258;PMS7003;37327;54.254;18.504;2023-03-01T07:49:54;7;6;5
51258;PMS7003;37327;54.254;18.504;2023-03-01T07:53:12;1;0;0
51258;PMS7003;37327;54.254;18.504;2023-03-01T07:56:29;8;7;5
51258;PMS7003;37327;54.254;18.504;2023-03-01T08:08:34;8;8;6
51258;PMS7003;37327;54.254;18.504;2023-03-01T08:11:53;7;7;6
51258;PMS7003;37327;54.254;18.504;2023-03-01T08:15:11;10;8;7
51258;PMS7003;37327;54.254;18.504;2023-03-01T08:18:54;9;8;6
51258;PMS7003;37327;54.254;18.504;2023-03-01T08:22:16;6;5;5
51258;PMS7003;37327;54.254;18.504;2023-03-01T08:25:33;6;6;5
51258;PMS7003;37327;54.254;18.504;2023-03-01T08:29:16;10;8;6
51258;PMS7003;37327;54.254;18.504;2023-03-01T08:32:38;5;5;4
51258;PMS7003;37327;54.254;18.504;2023-03-01T08:39:23;5;5;4
51258;PMS7003;37327;54.254;18.504;2023-03-01T08:42:41;8;7;6
51258;PMS7003;37327;54.254;18.504;2023-03-01T08:46:02;8;6;5
51258;PMS7003;37327;54.254;18.504;2023-03-01T08:49:21;8;7;5
51258;PMS7003;37327;54.254;18.504;2023-03-01T08:52:39;5;4;3
51258;PMS7003;37327;54.254;18.504;2023-03-01T08:55:59;7;6;5
51258;PMS7003;37327;54.254;18.504;2023-03-01T08:59:18;6;6;5
51258;PMS7003;37327;54.254;18.504;2023-03-01T09:02:36;10;6;5
51258;PMS7003;37327;54.254;18.504;2023-03-01T09:05:59;7;6;5
51258;PMS7003;37327;54.254;18.504;2023-03-01T09:09:17;6;6;5
51258;PMS7003;37327;54.254;18.504;2023-03-01T09:12:35;6;6;5
51258;PMS7003;37327;54.254;18.504;2023-03-01T09:15:52;5;4;4
51258;PMS7003;37327;54.254;18.504;2023-03-01T09:19:09;7;5;4
51258;PMS7003;37327;54.254;18.504;2023-03-01T09:22:27;9;7;4
51258;PMS7003;37327;54.254;18.504;2023-03-01T09:25:44;8;7;6
51258;PMS7003;37327;54.254;18.504;2023-03-01T09:29:01;11;8;5
51258;PMS7003;37327;54.254;18.504;2023-03-01T09:32:19;2;1;1
51258;PMS7003;37327;54.254;18.504;2023-03-01T09:35:36;5;2;2
51258;PMS7003;37327;54.254;18.504;2023-03-01T09:39:03;8;6;4
51258;PMS7003;37327;54.254;18.504;2023-03-01T09:42:24;8;7;6
51258;PMS7003;37327;54.254;18.504;2023-03-01T09:45:43;7;5;4
51258;PMS7003;37327;54.254;18.504;2023-03-01T09:49:09;8;6;6
51258;PMS7003;37327;54.254;18.504;2023-03-01T10:03:03;2;2;1
51258;PMS7003;37327;54.254;18.504;2023-03-01T10:06:26;7;7;6
51258;PMS7003;37327;54.254;18.504;2023-03-01T10:09:45;9;8;7
51258;PMS7003;37327;54.254;18.504;2023-03-01T10:13:10;7;7;6
51258;PMS7003;37327;54.254;18.504;2023-03-01T10:23:30;7;6;4
51258;PMS7003;37327;54.254;18.504;2023-03-01T10:33:43;7;5;4
51258;PMS7003;37327;54.254;18.504;2023-03-01T10:40:30;1;1;0
51258;PMS7003;37327;54.254;18.504;2023-03-01T10:43:49;14;10;7
51258;PMS7003;37327;54.254;18.504;2023-03-01T10:50:43;11;9;7
51258;PMS7003;37327;54.254;18.504;2023-03-01T10:54:02;10;6;6
51258;PMS7003;37327;54.254;18.504;2023-03-01T11:00:56;9;7;6
51258;PMS7003;37327;54.254;18.504;2023-03-01T11:04:22;11;8;6
51258;PMS7003;37327;54.254;18.504;2023-03-01T11:11:18;11;9;7
51258;PMS7003;37327;54.254;18.504;2023-03-01T11:14:38;9;8;7
51258;PMS7003;37327;54.254;18.504;2023-03-01T11:18:00;5;5;3
51258;PMS7003;37327;54.254;18.504;2023-03-01T11:21:19;11;9;7
51258;PMS7003;37327;54.254;18.504;2023-03-01T11:28:05;15;12;10
51258;PMS7003;37327;54.254;18.504;2023-03-01T11:31:24;12;10;8
51258;PMS7003;37327;54.254;18.504;2023-03-01T11:34:44;12;8;6
51258;PMS7003;37327;54.254;18.504;2023-03-01T11:41:36;11;7;6
51258;PMS7003;37327;54.254;18.504;2023-03-01T11:44:58;10;8;7
51258;PMS7003;37327;54.254;18.504;2023-03-01T11:55:26;10;10;7
51258;PMS7003;37327;54.254;18.504;2023-03-01T12:09:39;7;7;5
51258;PMS7003;37327;54.254;18.504;2023-03-01T12:32:52;15;13;10
51258;PMS7003;37327;54.254;18.504;2023-03-01T12:40:24;9;8;7
51258;PMS7003;37327;54.254;18.504;2023-03-01T12:50:17;6;6;5
51258;PMS7003;37327;54.254;18.504;2023-03-01T12:53:46;6;6;4
51258;PMS7003;37327;54.254;18.504;2023-03-01T12:57:06;11;10;6
51258;PMS7003;37327;54.254;18.504;2023-03-01T13:00:34;10;7;6
51258;PMS7003;37327;54.254;18.504;2023-03-01T13:07:33;10;8;7
51258;PMS7003;37327;54.254;18.504;2023-03-01T13:11:00;8;7;6
51258;PMS7003;37327;54.254;18.504;2023-03-01T13:17:48;8;8;7
51258;PMS7003;37327;54.254;18.504;2023-03-01T13:21:10;8;7;5
51258;PMS7003;37327;54.254;18.504;2023-03-01T13:28:45;11;7;6
51258;PMS7003;37327;54.254;18.504;2023-03-01T13:34:59;7;7;6
51258;PMS7003;37327;54.254;18.504;2023-03-01T13:41:54;7;7;6
51258;PMS7003;37327;54.254;18.504;2023-03-01T13:45:19;10;7;6
51258;PMS7003;37327;54.254;18.504;2023-03-01T13:48:43;9;8;7
51258;PMS7003;37327;54.254;18.504;2023-03-01T13:52:04;8;6;5
51258;PMS7003;37327;54.254;18.504;2023-03-01T13:58:58;8;8;6
51258;PMS7003;37327;54.254;18.504;2023-03-01T14:02:18;7;7;6
51258;PMS7003;37327;54.254;18.504;2023-03-01T14:05:36;8;7;5
51258;PMS7003;37327;54.254;18.504;2023-03-01T14:19:24;9;9;8
51258;PMS7003;37327;54.254;18.504;2023-03-01T14:22:44;10;9;8
51258;PMS7003;37327;54.254;18.504;2023-03-01T14:26:03;8;7;6
51258;PMS7003;37327;54.254;18.504;2023-03-01T14:29:24;12;10;9
51258;PMS7003;37327;54.254;18.504;2023-03-01T14:36:25;9;8;7
51258;PMS7003;37327;54.254;18.504;2023-03-01T14:39:42;16;10;7
51258;PMS7003;37327;54.254;18.504;2023-03-01T14:43:00;9;7;6
51258;PMS7003;37327;54.254;18.504;2023-03-01T14:46:30;11;9;7
51258;PMS7003;37327;54.254;18.504;2023-03-01T14:49:56;13;11;8
51258;PMS7003;37327;54.254;18.504;2023-03-01T14:56:45;13;13;10
51258;PMS7003;37327;54.254;18.504;2023-03-01T15:00:05;9;9;9
51258;PMS7003;37327;54.254;18.504;2023-03-01T15:06:57;11;11;9
51258;PMS7003;37327;54.254;18.504;2023-03-01T15:13:46;14;12;9
51258;PMS7003;37327;54.254;18.504;2023-03-01T15:17:04;14;11;9
51258;PMS7003;37327;54.254;18.504;2023-03-01T15:20:22;9;7;6
51258;PMS7003;37327;54.254;18.504;2023-03-01T15:23:54;15;13;9
51258;PMS7003;37327;54.254;18.504;2023-03-01T15:27:15;13;11;10
51258;PMS7003;37327;54.254;18.504;2023-03-01T15:30:36;15;12;9
51258;PMS7003;37327;54.254;18.504;2023-03-01T15:34:07;14;9;8
51258;PMS7003;37327;54.254;18.504;2023-03-01T15:40:51;11;10;8
51258;PMS7003;37327;54.254;18.504;2023-03-01T15:47:38;12;9;7
51258;PMS7003;37327;54.254;18.504;2023-03-01T15:50:58;12;9;8
51258;PMS7003;37327;54.254;18.504;2023-03-01T15:54:18;10;10;8
51258;PMS7003;37327;54.254;18.504;2023-03-01T15:57:38;11;9;8
51258;PMS7003;37327;54.254;18.504;2023-03-01T16:00:55;13;12;10
51258;PMS7003;37327;54.254;18.504;2023-03-01T16:04:13;14;12;8
51258;PMS7003;37327;54.254;18.504;2023-03-01T16:07:39;11;9;7
51258;PMS7003;37327;54.254;18.504;2023-03-01T16:10:56;12;10;8
51258;PMS7003;37327;54.254;18.504;2023-03-01T16:14:14;11;10;7
51258;PMS7003;37327;54.254;18.504;2023-03-01T16:17:32;13;12;9
51258;PMS7003;37327;54.254;18.504;2023-03-01T16:20:50;16;11;10
51258;PMS7003;37327;54.254;18.504;2023-03-01T16:24:10;13;13;11
51258;PMS7003;37327;54.254;18.504;2023-03-01T16:27:27;13;12;9
51258;PMS7003;37327;54.254;18.504;2023-03-01T16:30:47;15;13;10
51258;PMS7003;37327;54.254;18.504;2023-03-01T16:34:06;14;12;10
51258;PMS7003;37327;54.254;18.504;2023-03-01T16:37:24;13;11;9
51258;PMS7003;37327;54.254;18.504;2023-03-01T16:40:41;14;11;8
51258;PMS7003;37327;54.254;18.504;2023-03-01T16:44:04;16;14;10
51258;PMS7003;37327;54.254;18.504;2023-03-01T16:47:21;8;8;7
51258;PMS7003;37327;54.254;18.504;2023-03-01T16:50:39;10;8;7
51258;PMS7003;37327;54.254;18.504;2023-03-01T16:53:56;11;10;8
51258;PMS7003;37327;54.254;18.504;2023-03-01T16:57:13;12;10;6
51258;PMS7003;37327;54.254;18.504;2023-03-01T17:00:32;13;10;9
51258;PMS7003;37327;54.254;18.504;2023-03-01T17:03:49;12;11;10
51258;PMS7003;37327;54.254;18.504;2023-03-01T17:07:07;17;12;10
51258;PMS7003;37327;54.254;18.504;2023-03-01T17:10:24;14;13;10
51258;PMS7003;37327;54.254;18.504;2023-03-01T17:13:41;15;12;11
51258;PMS7003;37327;54.254;18.504;2023-03-01T17:16:59;15;14;11
51258;PMS7003;37327;54.254;18.504;2023-03-01T17:20:18;15;14;11
51258;PMS7003;37327;54.254;18.504;2023-03-01T17:23:37;15;14;11
51258;PMS7003;37327;54.254;18.504;2023-03-01T17:26:56;14;13;10
51258;PMS7003;37327;54.254;18.504;2023-03-01T17:30:14;15;12;10
51258;PMS7003;37327;54.254;18.504;2023-03-01T17:33:32;16;13;9
51258;PMS7003;37327;54.254;18.504;2023-03-01T17:36:51;18;12;9
51258;PMS7003;37327;54.254;18.504;2023-03-01T17:40:07;10;9;8
51258;PMS7003;37327;54.254;18.504;2023-03-01T17:43:25;15;11;9
51258;PMS7003;37327;54.254;18.504;2023-03-01T17:46:43;14;12;10
51258;PMS7003;37327;54.254;18.504;2023-03-01T17:50:01;13;12;10
51258;PMS7003;37327;54.254;18.504;2023-03-01T17:53:21;12;11;9
51258;PMS7003;37327;54.254;18.504;2023-03-01T17:56:38;17;15;12
51258;PMS7003;37327;54.254;18.504;2023-03-01T17:59:58;16;13;10
51258;PMS7003;37327;54.254;18.504;2023-03-01T18:03:15;16;15;10
51258;PMS7003;37327;54.254;18.504;2023-03-01T18:06:34;13;12;10
51258;PMS7003;37327;54.254;18.504;2023-03-01T18:09:52;22;14;11
51258;PMS7003;37327;54.254;18.504;2023-03-01T18:13:09;18;15;12
51258;PMS7003;37327;54.254;18.504;2023-03-01T18:16:30;20;16;14
51258;PMS7003;37327;54.254;18.504;2023-03-01T18:19:49;27;26;17
51258;PMS7003;37327;54.254;18.504;2023-03-01T18:23:06;24;23;18
51258;PMS7003;37327;54.254;18.504;2023-03-01T18:26:24;30;25;20
51258;PMS7003;37327;54.254;18.504;2023-03-01T18:29:44;30;27;20
51258;PMS7003;37327;54.254;18.504;2023-03-01T18:33:01;42;38;28
51258;PMS7003;37327;54.254;18.504;2023-03-01T18:36:23;34;28;21
51258;PMS7003;37327;54.254;18.504;2023-03-01T18:39:41;30;26;18
51258;PMS7003;37327;54.254;18.504;2023-03-01T18:42:59;32;27;21
51258;PMS7003;37327;54.254;18.504;2023-03-01T18:46:16;24;23;18
51258;PMS7003;37327;54.254;18.504;2023-03-01T18:49:35;21;20;16
51258;PMS7003;37327;54.254;18.504;2023-03-01T18:52:52;18;18;14
51258;PMS7003;37327;54.254;18.504;2023-03-01T18:56:10;23;14;11
51258;PMS7003;37327;54.254;18.504;2023-03-01T18:59:29;15;13;11
51258;PMS7003;37327;54.254;18.504;2023-03-01T19:02:46;10;8;7
51258;PMS7003;37327;54.254;18.504;2023-03-01T19:06:03;7;6;6
51258;PMS7003;37327;54.254;18.504;2023-03-01T19:09:21;9;8;7
51258;PMS7003;37327;54.254;18.504;2023-03-01T19:12:38;10;9;7
51258;PMS7003;37327;54.254;18.504;2023-03-01T19:19:21;6;6;5
51258;PMS7003;37327;54.254;18.504;2023-03-01T19:22:38;4;4;3
51258;PMS7003;37327;54.254;18.504;2023-03-01T19:26:00;3;3;3
51258;PMS7003;37327;54.254;18.504;2023-03-01T19:29:18;3;2;1
51258;PMS7003;37327;54.254;18.504;2023-03-01T19:32:36;4;4;3
51258;PMS7003;37327;54.254;18.504;2023-03-01T19:35:53;5;3;2
51258;PMS7003;37327;54.254;18.504;2023-03-01T19:39:11;5;5;5
51258;PMS7003;37327;54.254;18.504;2023-03-01T19:42:29;5;5;5
51258;PMS7003;37327;54.254;18.504;2023-03-01T19:49:10;11;9;8
51258;PMS7003;37327;54.254;18.504;2023-03-01T19:52:28;12;12;10
51258;PMS7003;37327;54.254;18.504;2023-03-01T19:55:46;2;2;2
51258;PMS7003;37327;54.254;18.504;2023-03-01T19:59:04;3;3;3
51258;PMS7003;37327;54.254;18.504;2023-03-01T20:02:22;5;4;4
51258;PMS7003;37327;54.254;18.504;2023-03-01T20:05:40;5;4;4
51258;PMS7003;37327;54.254;18.504;2023-03-01T20:09:00;4;4;3
51258;PMS7003;37327;54.254;18.504;2023-03-01T20:12:18;3;3;3
51258;PMS7003;37327;54.254;18.504;2023-03-01T20:15:39;3;3;3
51258;PMS7003;37327;54.254;18.504;2023-03-01T20:19:01;3;3;3
51258;PMS7003;37327;54.254;18.504;2023-03-01T20:22:19;3;3;3
51258;PMS7003;37327;54.254;18.504;2023-03-01T20:25:36;2;2;2
51258;PMS7003;37327;54.254;18.504;2023-03-01T20:28:54;0;0;0
51258;PMS7003;37327;54.254;18.504;2023-03-01T20:32:12;0;0;0
51258;PMS7003;37327;54.254;18.504;2023-03-01T20:35:32;0;0;0
51258;PMS7003;37327;54.254;18.504;2023-03-01T20:38:52;0;0;0
51258;PMS7003;37327;54.254;18.504;2023-03-01T20:42:11;0;0;0
51258;PMS7003;37327;54.254;18.504;2023-03-01T20:45:28;1;0;0
51258;PMS7003;37327;54.254;18.504;2023-03-01T20:48:46;3;1;0
51258;PMS7003;37327;54.254;18.504;2023-03-01T20:52:03;0;0;0
51258;PMS7003;37327;54.254;18.504;2023-03-01T20:55:22;1;1;1
51258;PMS7003;37327;54.254;18.504;2023-03-01T20:58:39;0;0;0
51258;PMS7003;37327;54.254;18.504;2023-03-01T21:01:57;1;1;1
51258;PMS7003;37327;54.254;18.504;2023-03-01T21:05:15;0;0;0
51258;PMS7003;37327;54.254;18.504;2023-03-01T21:08:33;4;1;1
51258;PMS7003;37327;54.254;18.504;2023-03-01T21:11:50;4;2;2
51258;PMS7003;37327;54.254;18.504;2023-03-01T21:15:08;3;2;2
51258;PMS7003;37327;54.254;18.504;2023-03-01T21:18:26;2;2;1
51258;PMS7003;37327;54.254;18.504;2023-03-01T21:21:45;1;1;0
51258;PMS7003;37327;54.254;18.504;2023-03-01T21:25:03;1;0;0
51258;PMS7003;37327;54.254;18.504;2023-03-01T21:28:21;1;1;1
51258;PMS7003;37327;54.254;18.504;2023-03-01T21:31:39;1;1;1
51258;PMS7003;37327;54.254;18.504;2023-03-01T21:34:56;4;2;2
51258;PMS7003;37327;54.254;18.504;2023-03-01T21:38:14;3;3;2
51258;PMS7003;37327;54.254;18.504;2023-03-01T21:41:33;3;3;2
51258;PMS7003;37327;54.254;18.504;2023-03-01T21:44:52;2;2;2
51258;PMS7003;37327;54.254;18.504;2023-03-01T21:48:09;3;2;2
51258;PMS7003;37327;54.254;18.504;2023-03-01T21:51:27;0;0;0
51258;PMS7003;37327;54.254;18.504;2023-03-01T21:54:49;2;2;2
51258;PMS7003;37327;54.254;18.504;2023-03-01T21:58:07;2;2;1
51258;PMS7003;37327;54.254;18.504;2023-03-01T22:01:25;3;1;1
51258;PMS7003;37327;54.254;18.504;2023-03-01T22:04:43;0;0;0
51258;PMS7003;37327;54.254;18.504;2023-03-01T22:08:01;1;1;1
51258;PMS7003;37327;54.254;18.504;2023-03-01T22:11:19;2;1;1
51258;PMS7003;37327;54.254;18.504;2023-03-01T22:14:39;2;2;2
51258;PMS7003;37327;54.254;18.504;2023-03-01T22:17:58;2;1;0
51258;PMS7003;37327;54.254;18.504;2023-03-01T22:21:16;2;1;1
51258;PMS7003;37327;54.254;18.504;2023-03-01T22:24:34;2;1;0
51258;PMS7003;37327;54.254;18.504;2023-03-01T22:27:52;2;1;1
51258;PMS7003;37327;54.254;18.504;2023-03-01T22:31:09;5;2;2
51258;PMS7003;37327;54.254;18.504;2023-03-01T22:34:26;4;4;4
51258;PMS7003;37327;54.254;18.504;2023-03-01T22:37:44;8;5;3
51258;PMS7003;37327;54.254;18.504;2023-03-01T22:41:02;5;4;4
51258;PMS7003;37327;54.254;18.504;2023-03-01T22:44:21;5;5;4
51258;PMS7003;37327;54.254;18.504;2023-03-01T22:47:39;3;3;3
51258;PMS7003;37327;54.254;18.504;2023-03-01T22:50:56;5;4;4
51258;PMS7003;37327;54.254;18.504;2023-03-01T22:54:14;6;5;5
51258;PMS7003;37327;54.254;18.504;2023-03-01T22:57:32;8;8;6
51258;PMS7003;37327;54.254;18.504;2023-03-01T23:00:50;5;5;4
51258;PMS7003;37327;54.254;18.504;2023-03-01T23:04:07;11;7;6
51258;PMS7003;37327;54.254;18.504;2023-03-01T23:07:24;5;5;4
51258;PMS7003;37327;54.254;18.504;2023-03-01T23:10:42;3;3;2
51258;PMS7003;37327;54.254;18.504;2023-03-01T23:13:59;2;1;1
51258;PMS7003;37327;54.254;18.504;2023-03-01T23:17:16;2;1;1
51258;PMS7003;37327;54.254;18.504;2023-03-01T23:20:34;3;3;3
51258;PMS7003;37327;54.254;18.504;2023-03-01T23:23:52;3;3;3
51258;PMS7003;37327;54.254;18.504;2023-03-01T23:27:10;2;1;1
51258;PMS7003;37327;54.254;18.504;2023-03-01T23:30:33;2;2;2
51258;PMS7003;37327;54.254;18.504;2023-03-01T23:33:50;1;1;0
51258;PMS7003;37327;54.254;18.504;2023-03-01T23:37:08;1;0;0
51258;PMS7003;37327;54.254;18.504;2023-03-01T23:40:26;2;1;1
51258;PMS7003;37327;54.254;18.504;2023-03-01T23:43:44;0;0;0
51258;PMS7003;37327;54.254;18.504;2023-03-01T23:47:02;1;1;0
51258;PMS7003;37327;54.254;18.504;2023-03-01T23:50:19;2;1;1
51258;PMS7003;37327;54.254;18.504;2023-03-01T23:53:38;2;2;1
51258;PMS7003;37327;54.254;18.504;2023-03-01T23:56:57;1;1;1
